Terminal Aerodrome Forecast
Issued by NWS

Home | Current Version | Previous Version | Graphics & Text | Print | Product List | Glossary On
Versions: 1 2 3 4 5 6 7 8 9 10 11 12 13 14 15 16
263
FTUS43 KBIS 250426 AAB
TAFJMS
TAF AMD
KJMS 250426Z 2504/2524 33008KT P6SM BKN040 OVC060
     FM250600 32008KT P6SM SCT040
     FM251500 32011KT P6SM SCT060 BKN090
     FM252000 33014KT P6SM FEW045 SCT080=

USA.gov is the U.S. government's official web portal to all federal, state and local government web resources and services.